Time;durP1;ratioP1;P1;durP2;ratioP2;P2;SDS_P1;SDS_P2;PMS_P1;PMS_P2;Temp;Humidity;BMP_temperature;BMP_pressure;BME280_temperature;BME280_humidity;BME280_pressure;Samples;Min_cycle;Max_cycle;Signal;HPM_P1;HPM_P2
2021/10/24 00:01:07;;;;;;;0.40;0.40;;;5.00;98.60;;;;;;5016889;28;20202;-69
2021/10/24 00:03:33;;;;;;;0.40;0.40;;;4.90;98.50;;;;;;5016666;28;20159;-70
2021/10/24 00:05:59;;;;;;;1.07;1.07;;;4.90;98.60;;;;;;5016407;28;20178;-69
2021/10/24 00:08:25;;;;;;;0.40;0.40;;;4.90;98.60;;;;;;5016634;28;20473;-68
2021/10/24 00:10:51;;;;;;;0.70;0.70;;;4.90;98.60;;;;;;5016400;28;20614;-70
2021/10/24 00:13:16;;;;;;;0.40;0.40;;;4.90;98.60;;;;;;5016596;28;20203;-69
2021/10/24 00:15:42;;;;;;;0.40;0.40;;;4.90;98.60;;;;;;5016125;28;20175;-70
2021/10/24 00:18:08;;;;;;;0.32;0.32;;;4.70;98.40;;;;;;5016332;28;20171;-70
2021/10/24 00:20:34;;;;;;;0.30;0.30;;;4.70;98.60;;;;;;5016309;28;20190;-69
2021/10/24 00:23:01;;;;;;;0.30;0.30;;;4.70;98.50;;;;;;5016216;28;20230;-68
2021/10/24 00:25:27;;;;;;;0.30;0.30;;;4.50;98.40;;;;;;5016132;28;20241;-68
2021/10/24 00:27:53;;;;;;;0.30;0.30;;;4.50;98.90;;;;;;5016113;28;20581;-68
2021/10/24 00:30:18;;;;;;;0.40;0.40;;;4.50;98.90;;;;;;5015772;28;20432;-68
2021/10/24 00:32:44;;;;;;;0.40;0.40;;;4.50;99.00;;;;;;5015930;28;20731;-69
2021/10/24 00:35:10;;;;;;;0.40;0.40;;;4.60;99.00;;;;;;5015926;28;20571;-69
2021/10/24 00:37:36;;;;;;;0.30;0.30;;;4.70;98.80;;;;;;5016094;28;20437;-68
2021/10/24 00:40:03;;;;;;;0.30;0.30;;;4.80;98.50;;;;;;5015922;28;20885;-67
2021/10/24 00:42:28;;;;;;;0.30;0.30;;;4.80;98.60;;;;;;5015767;28;20418;-70
2021/10/24 00:44:55;;;;;;;0.40;0.40;;;4.80;98.30;;;;;;5015993;28;20243;-70
2021/10/24 00:47:21;;;;;;;0.40;0.40;;;4.70;98.30;;;;;;5015929;28;20174;-70
2021/10/24 00:49:49;;;;;;;0.30;0.30;;;4.70;98.20;;;;;;5015627;28;20239;-69
2021/10/24 00:52:15;;;;;;;0.38;0.38;;;4.60;98.10;;;;;;5015584;28;20569;-68
2021/10/24 00:54:42;;;;;;;0.40;0.40;;;4.60;98.20;;;;;;5015574;28;20548;-68
2021/10/24 00:57:09;;;;;;;0.30;0.30;;;4.50;98.20;;;;;;5015449;28;20171;-69
2021/10/24 00:59:38;;;;;;;0.40;0.40;;;4.50;98.50;;;;;;5015529;28;20220;-69
2021/10/24 01:02:04;;;;;;;0.63;0.63;;;4.60;98.80;;;;;;5015493;28;20186;-68
2021/10/24 01:04:30;;;;;;;0.40;0.40;;;4.50;98.70;;;;;;5015634;28;20182;-68
2021/10/24 01:07:02;;;;;;;0.40;0.40;;;4.50;98.60;;;;;;5015381;28;20198;-70
2021/10/24 01:09:30;;;;;;;0.40;0.40;;;4.70;98.60;;;;;;5015537;28;20279;-69
2021/10/24 01:11:55;;;;;;;0.30;0.30;;;4.60;98.40;;;;;;5015120;28;20254;-69
2021/10/24 01:14:21;;;;;;;0.30;0.30;;;4.60;98.30;;;;;;5015229;28;20207;-70
2021/10/24 01:16:47;;;;;;;0.30;0.30;;;4.60;98.40;;;;;;5015174;28;20254;-70
2021/10/24 01:19:14;;;;;;;0.30;0.30;;;4.60;98.20;;;;;;5015435;28;20255;-69
2021/10/24 01:21:39;;;;;;;0.32;0.32;;;4.60;98.10;;;;;;5014984;28;20426;-68
2021/10/24 01:24:05;;;;;;;0.40;0.40;;;4.50;97.80;;;;;;5015289;28;20183;-69
2021/10/24 01:26:34;;;;;;;0.40;0.40;;;4.50;97.90;;;;;;5014894;28;20278;-68
2021/10/24 01:29:00;;;;;;;0.30;0.30;;;4.50;97.80;;;;;;5013688;28;20918;-70
2021/10/24 01:31:26;;;;;;;0.30;0.30;;;4.30;97.90;;;;;;5014738;28;20257;-69
2021/10/24 01:33:51;;;;;;;0.30;0.30;;;4.30;98.00;;;;;;5014875;28;20174;-70
2021/10/24 01:36:17;;;;;;;0.30;0.30;;;4.30;98.10;;;;;;5014699;28;20629;-68
2021/10/24 01:38:45;;;;;;;0.30;0.30;;;4.30;98.20;;;;;;5015002;28;20198;-70
2021/10/24 01:41:11;;;;;;;0.40;0.40;;;4.20;98.20;;;;;;5014869;28;20218;-69
2021/10/24 01:43:37;;;;;;;0.40;0.40;;;4.20;98.20;;;;;;5014008;28;20181;-69
2021/10/24 01:46:04;;;;;;;0.40;0.40;;;4.20;98.20;;;;;;5014493;28;20633;-70
2021/10/24 01:48:29;;;;;;;0.40;0.40;;;4.20;98.00;;;;;;5013309;28;20402;-69
2021/10/24 01:50:56;;;;;;;0.30;0.30;;;4.10;98.00;;;;;;5014414;28;20207;-68
2021/10/24 01:53:31;;;;;;;0.30;0.30;;;4.00;98.00;;;;;;5013160;28;20260;-69
2021/10/24 01:55:57;;;;;;;0.40;0.40;;;4.00;98.20;;;;;;5014425;28;20733;-69
2021/10/24 01:58:24;;;;;;;0.40;0.40;;;4.00;98.20;;;;;;5014573;28;20175;-68
2021/10/24 02:00:51;;;;;;;0.40;0.40;;;4.00;98.10;;;;;;5014368;28;20433;-69
2021/10/24 02:03:17;;;;;;;0.40;0.40;;;4.00;98.00;;;;;;5014289;28;20179;-69
2021/10/24 02:05:43;;;;;;;0.38;0.38;;;4.00;98.00;;;;;;5014107;28;20178;-67
2021/10/24 02:08:10;;;;;;;0.30;0.30;;;3.80;98.00;;;;;;5014524;28;20586;-69
2021/10/24 02:10:37;;;;;;;0.30;0.30;;;3.80;98.20;;;;;;5014118;28;20233;-67
2021/10/24 02:13:04;;;;;;;0.30;0.30;;;3.80;98.20;;;;;;5014191;28;20242;-68
2021/10/24 02:15:30;;;;;;;0.30;0.30;;;3.80;98.20;;;;;;5014127;28;20228;-69
2021/10/24 02:17:56;;;;;;;0.40;0.40;;;3.70;98.20;;;;;;5014278;28;20174;-69
2021/10/24 02:20:22;;;;;;;0.30;0.30;;;3.80;98.20;;;;;;5014272;28;20199;-69
2021/10/24 02:22:48;;;;;;;0.30;0.30;;;3.80;98.20;;;;;;5014199;28;20178;-68
2021/10/24 02:25:14;;;;;;;0.35;0.35;;;3.80;98.10;;;;;;5014071;28;20175;-69
2021/10/24 02:27:40;;;;;;;0.35;0.35;;;3.80;98.10;;;;;;5014067;28;20568;-68
2021/10/24 02:30:07;;;;;;;0.30;0.30;;;3.80;98.10;;;;;;5014142;28;20277;-69
2021/10/24 02:32:33;;;;;;;0.30;0.30;;;3.80;98.10;;;;;;5013759;28;20454;-67
2021/10/24 02:34:58;;;;;;;0.30;0.30;;;3.80;97.90;;;;;;5013698;28;20185;-67
2021/10/24 02:37:24;;;;;;;0.30;0.30;;;3.80;97.70;;;;;;5013900;28;20402;-67
2021/10/24 02:39:50;;;;;;;0.40;0.40;;;3.80;97.70;;;;;;5013904;28;20626;-69
2021/10/24 02:42:16;;;;;;;0.30;0.30;;;3.70;97.80;;;;;;5013722;28;20196;-69
2021/10/24 02:44:41;;;;;;;0.40;0.40;;;3.70;97.70;;;;;;5013973;28;20656;-68
2021/10/24 02:47:07;;;;;;;0.30;0.30;;;3.60;97.80;;;;;;5013761;28;20213;-69
2021/10/24 02:49:37;;;;;;;0.40;0.40;;;3.60;97.90;;;;;;5012974;28;20534;-69
2021/10/24 02:52:04;;;;;;;0.40;0.40;;;3.50;97.70;;;;;;5013734;28;20201;-68
2021/10/24 02:54:31;;;;;;;0.40;0.40;;;3.40;97.80;;;;;;5017292;28;20182;-68
2021/10/24 02:56:59;;;;;;;0.30;0.30;;;3.50;98.00;;;;;;5020465;28;20225;-70
2021/10/24 02:59:24;;;;;;;0.30;0.30;;;3.40;98.00;;;;;;5020202;28;20216;-69
2021/10/24 03:01:53;;;;;;;0.40;0.40;;;3.40;98.20;;;;;;5020161;28;20206;-70
2021/10/24 03:04:19;;;;;;;0.30;0.30;;;3.20;98.30;;;;;;5020153;28;20206;-69
2021/10/24 03:06:44;;;;;;;0.40;0.40;;;3.00;99.00;;;;;;5020321;28;20185;-67
2021/10/24 03:09:10;;;;;;;0.30;0.30;;;3.00;99.10;;;;;;5019231;28;20178;-68
2021/10/24 03:11:36;;;;;;;0.30;0.30;;;3.10;99.10;;;;;;5018895;28;20457;-67
2021/10/24 03:14:02;;;;;;;0.37;0.37;;;3.20;99.10;;;;;;5020695;28;20220;-71
2021/10/24 03:16:28;;;;;;;0.40;0.40;;;3.30;98.80;;;;;;5020000;28;20407;-67
2021/10/24 03:18:56;;;;;;;0.30;0.30;;;3.30;98.50;;;;;;5018959;28;20757;-70
2021/10/24 03:21:23;;;;;;;0.30;0.30;;;3.30;98.40;;;;;;5019280;28;20431;-69
2021/10/24 03:23:48;;;;;;;0.30;0.30;;;3.30;98.30;;;;;;5020442;28;20169;-67
2021/10/24 03:26:14;;;;;;;0.40;0.40;;;3.30;98.30;;;;;;5017569;28;20381;-69
2021/10/24 03:28:40;;;;;;;0.30;0.30;;;3.30;98.30;;;;;;5019614;28;20168;-69
2021/10/24 03:31:06;;;;;;;0.30;0.30;;;3.30;98.20;;;;;;5019865;28;20424;-68
2021/10/24 03:33:32;;;;;;;0.30;0.30;;;3.20;98.10;;;;;;5020222;28;20219;-69
2021/10/24 03:35:57;;;;;;;0.40;0.40;;;3.20;98.20;;;;;;5018465;28;20852;-69
2021/10/24 03:38:23;;;;;;;0.30;0.30;;;3.20;98.20;;;;;;5019917;28;20252;-68
2021/10/24 03:40:49;;;;;;;0.30;0.30;;;3.30;98.30;;;;;;5019913;28;20255;-70
2021/10/24 03:43:15;;;;;;;0.30;0.30;;;3.30;98.40;;;;;;5019848;28;20660;-70
2021/10/24 03:45:41;;;;;;;0.30;0.30;;;3.30;98.40;;;;;;5019755;28;20188;-70
2021/10/24 03:48:07;;;;;;;0.35;0.35;;;3.30;98.30;;;;;;5019935;28;20490;-72
2021/10/24 03:50:33;;;;;;;0.30;0.30;;;3.40;98.20;;;;;;5019636;28;20324;-68
2021/10/24 03:52:59;;;;;;;0.30;0.30;;;3.40;98.10;;;;;;5020124;28;20194;-70
2021/10/24 03:55:26;;;;;;;0.40;0.40;;;3.40;98.10;;;;;;5019955;28;20472;-70
2021/10/24 03:57:51;;;;;;;0.30;0.30;;;3.40;98.00;;;;;;5020301;28;20828;-69
2021/10/24 04:00:17;;;;;;;0.30;0.30;;;3.40;98.00;;;;;;5020085;28;20234;-70
2021/10/24 04:02:50;;;;;;;0.40;0.40;;;3.30;97.90;;;;;;5019204;28;20261;-69
2021/10/24 04:05:16;;;;;;;0.40;0.40;;;3.30;98.00;;;;;;5017272;28;20304;-68
2021/10/24 04:07:42;;;;;;;0.30;0.30;;;3.30;97.90;;;;;;5016762;28;20261;-71
2021/10/24 04:10:08;;;;;;;0.37;0.37;;;3.40;98.50;;;;;;5017031;28;20170;-76
2021/10/24 04:12:33;;;;;;;0.50;0.50;;;3.30;98.20;;;;;;5016784;28;20209;-68
2021/10/24 04:14:59;;;;;;;0.30;0.30;;;3.40;98.20;;;;;;5016299;28;20173;-68
2021/10/24 04:17:24;;;;;;;0.40;0.40;;;3.40;98.20;;;;;;5016753;28;20520;-74
2021/10/24 04:19:50;;;;;;;0.40;0.40;;;3.30;98.10;;;;;;5016649;28;20162;-69
2021/10/24 04:22:16;;;;;;;0.40;0.40;;;3.30;98.10;;;;;;5016704;28;20195;-68
2021/10/24 04:24:41;;;;;;;0.30;0.30;;;3.30;98.20;;;;;;5016831;28;20706;-70
2021/10/24 04:27:07;;;;;;;0.30;0.30;;;3.30;98.50;;;;;;5015966;28;20277;-69
2021/10/24 04:29:33;;;;;;;0.40;0.40;;;3.30;98.60;;;;;;5016390;28;20720;-70
2021/10/24 04:31:58;;;;;;;0.40;0.40;;;3.40;98.60;;;;;;5016254;28;20206;-70
2021/10/24 04:34:24;;;;;;;0.30;0.30;;;3.40;98.40;;;;;;5014003;28;20230;-67
2021/10/24 04:36:50;;;;;;;0.40;0.40;;;3.40;98.20;;;;;;5013934;28;20206;-68
2021/10/24 04:39:15;;;;;;;0.30;0.30;;;3.30;98.20;;;;;;5014684;28;20581;-68
2021/10/24 04:41:41;;;;;;;0.40;0.40;;;3.30;98.20;;;;;;5015044;28;20429;-67
2021/10/24 04:44:07;;;;;;;0.35;0.35;;;3.30;98.00;;;;;;5015329;28;20648;-68
2021/10/24 04:46:33;;;;;;;0.30;0.30;;;3.30;98.00;;;;;;5015945;28;20257;-66
2021/10/24 04:48:59;;;;;;;0.40;0.40;;;3.20;97.90;;;;;;5015232;28;20185;-69
2021/10/24 04:51:24;;;;;;;0.30;0.30;;;3.20;97.90;;;;;;5013759;28;20576;-69
2021/10/24 04:53:50;;;;;;;0.30;0.30;;;3.10;98.00;;;;;;5015438;28;20263;-69
2021/10/24 04:56:16;;;;;;;0.30;0.30;;;3.00;98.10;;;;;;5013143;28;20171;-68
2021/10/24 04:58:42;;;;;;;0.30;0.30;;;3.10;98.20;;;;;;5015418;28;20535;-68
2021/10/24 05:01:09;;;;;;;0.30;0.30;;;3.10;98.30;;;;;;5015885;28;20201;-69
2021/10/24 05:03:34;;;;;;;0.30;0.30;;;3.10;98.40;;;;;;5015451;28;20179;-68
2021/10/24 05:06:00;;;;;;;0.30;0.30;;;3.10;98.40;;;;;;5015371;28;20690;-70
2021/10/24 05:08:26;;;;;;;0.33;0.33;;;3.00;98.50;;;;;;5015859;28;20180;-68
2021/10/24 05:10:51;;;;;;;0.40;0.40;;;3.10;98.80;;;;;;5015481;28;20194;-70
2021/10/24 05:13:17;;;;;;;0.40;0.40;;;3.10;98.70;;;;;;5013608;28;20254;-68
2021/10/24 05:15:43;;;;;;;0.30;0.30;;;3.20;98.60;;;;;;5014179;28;20245;-67
2021/10/24 05:18:08;;;;;;;0.40;0.40;;;3.10;98.50;;;;;;5012454;28;20174;-68
2021/10/24 05:20:34;;;;;;;0.40;0.40;;;3.20;98.50;;;;;;5013092;28;20536;-70
2021/10/24 05:23:00;;;;;;;0.30;0.30;;;3.20;98.40;;;;;;5014112;28;20533;-70
2021/10/24 05:25:25;;;;;;;0.40;0.40;;;3.20;98.40;;;;;;5015499;28;20644;-69
2021/10/24 05:27:54;;;;;;;0.40;0.40;;;3.10;98.40;;;;;;5015023;28;20189;-70
2021/10/24 05:30:21;;;;;;;0.30;0.30;;;3.10;98.60;;;;;;5015249;28;20659;-68
2021/10/24 05:32:47;;;;;;;0.32;0.32;;;3.20;98.90;;;;;;5014582;28;20290;-68
2021/10/24 05:35:13;;;;;;;0.30;0.30;;;3.20;99.00;;;;;;5014406;28;20300;-69
2021/10/24 05:37:38;;;;;;;0.30;0.30;;;3.30;99.10;;;;;;5014697;28;20683;-68
2021/10/24 05:40:05;;;;;;;0.40;0.40;;;3.30;99.00;;;;;;5014695;28;20170;-69
2021/10/24 05:42:30;;;;;;;0.40;0.40;;;3.40;98.80;;;;;;5013023;28;20181;-69
2021/10/24 05:44:56;;;;;;;0.30;0.30;;;3.30;98.70;;;;;;5014577;28;20174;-67
2021/10/24 05:47:22;;;;;;;0.40;0.40;;;3.30;98.70;;;;;;5014911;28;20580;-68
2021/10/24 05:49:49;;;;;;;0.30;0.30;;;3.30;98.70;;;;;;5012493;28;20475;-69
2021/10/24 05:52:15;;;;;;;0.40;0.40;;;3.30;98.70;;;;;;5012677;28;20250;-69
2021/10/24 05:54:41;;;;;;;0.40;0.40;;;3.30;98.70;;;;;;5013060;28;20201;-69
2021/10/24 05:57:07;;;;;;;0.30;0.30;;;3.30;98.90;;;;;;5012971;28;20169;-69
2021/10/24 05:59:32;;;;;;;0.40;0.40;;;3.40;99.10;;;;;;5028224;28;20221;-68
2021/10/24 06:01:58;;;;;;;0.40;0.40;;;3.40;98.90;;;;;;5014320;28;20191;-69
2021/10/24 06:04:24;;;;;;;0.30;0.30;;;3.40;98.70;;;;;;5013439;28;20258;-74
2021/10/24 06:06:50;;;;;;;0.30;0.30;;;3.30;98.50;;;;;;5013398;28;20201;-70
2021/10/24 06:09:15;;;;;;;0.30;0.30;;;3.30;98.50;;;;;;5014759;28;20540;-68
2021/10/24 06:11:55;;;;;;;0.30;0.30;;;3.20;98.60;;;;;;5012365;28;20233;-71
2021/10/24 06:14:21;;;;;;;0.35;0.35;;;3.20;98.90;;;;;;5014592;28;20173;-68
2021/10/24 06:16:47;;;;;;;0.30;0.30;;;3.10;99.00;;;;;;5014496;28;20228;-71
2021/10/24 06:19:13;;;;;;;0.30;0.30;;;3.20;99.30;;;;;;5014712;28;20484;-70
2021/10/24 06:21:38;;;;;;;0.40;0.40;;;3.30;99.40;;;;;;5014180;28;20318;-67
2021/10/24 06:24:04;;;;;;;0.30;0.30;;;3.40;99.20;;;;;;5014209;28;20229;-68
2021/10/24 06:26:30;;;;;;;0.60;0.60;;;3.40;99.10;;;;;;5014192;28;20653;-67
2021/10/24 06:28:56;;;;;;;0.35;0.35;;;3.40;99.20;;;;;;5012688;28;20184;-69
2021/10/24 06:31:22;;;;;;;0.30;0.30;;;3.50;99.20;;;;;;5013806;28;20198;-68
2021/10/24 06:33:48;;;;;;;0.30;0.30;;;3.50;99.20;;;;;;5014580;28;20529;-69
2021/10/24 06:36:13;;;;;;;0.30;0.30;;;3.60;99.20;;;;;;5013968;28;20543;-69
2021/10/24 06:38:39;;;;;;;0.30;0.30;;;3.70;99.30;;;;;;5013937;28;20177;-68
2021/10/24 06:41:04;;;;;;;0.30;0.30;;;3.80;99.30;;;;;;5014019;28;20202;-69
2021/10/24 06:43:30;;;;;;;0.30;0.30;;;3.80;99.30;;;;;;5014189;28;20175;-68
2021/10/24 06:45:56;;;;;;;0.67;0.67;;;3.90;99.20;;;;;;5013744;28;20337;-71
2021/10/24 06:48:21;;;;;;;0.30;0.30;;;4.00;99.20;;;;;;5014200;28;20171;-68
2021/10/24 06:50:47;;;;;;;0.30;0.30;;;4.00;99.00;;;;;;5013713;28;20260;-67
2021/10/24 06:53:13;;;;;;;0.30;0.30;;;4.10;99.40;;;;;;5013866;28;20285;-69
2021/10/24 06:55:38;;;;;;;0.30;0.30;;;4.20;99.00;;;;;;5013674;28;20533;-69
2021/10/24 06:58:04;;;;;;;0.30;0.30;;;4.20;98.80;;;;;;5014008;28;20636;-68
2021/10/24 07:00:30;;;;;;;0.30;0.30;;;4.20;98.70;;;;;;5012325;28;20194;-70
2021/10/24 07:02:56;;;;;;;0.30;0.30;;;4.30;98.60;;;;;;5012585;28;20254;-68
2021/10/24 07:05:25;;;;;;;0.30;0.30;;;4.30;98.40;;;;;;5012881;28;20258;-67
2021/10/24 07:07:50;;;;;;;0.38;0.38;;;4.30;98.50;;;;;;5012900;28;20171;-69
2021/10/24 07:10:17;;;;;;;0.30;0.30;;;4.40;98.80;;;;;;5012399;28;20256;-70
2021/10/24 07:12:44;;;;;;;0.30;0.30;;;4.50;99.00;;;;;;5012635;28;20212;-69
2021/10/24 07:15:10;;;;;;;0.40;0.40;;;4.60;99.00;;;;;;5013741;28;20179;-70
2021/10/24 07:17:37;;;;;;;0.40;0.40;;;4.70;99.60;;;;;;5012817;28;20614;-70
2021/10/24 07:20:07;;;;;;;0.40;0.40;;;5.10;99.90;;;;;;5012310;28;20180;-69
2021/10/24 07:22:32;;;;;;;0.60;0.60;;;5.80;99.90;;;;;;5013960;28;20187;-69
2021/10/24 07:24:58;;;;;;;0.40;0.40;;;7.00;96.90;;;;;;5013214;28;20172;-68
2021/10/24 07:27:24;;;;;;;0.30;0.30;;;8.20;93.80;;;;;;5013784;28;20306;-70
2021/10/24 07:29:50;;;;;;;0.30;0.30;;;9.20;91.60;;;;;;5013889;28;20413;-71
2021/10/24 07:32:15;;;;;;;0.30;0.30;;;10.00;88.40;;;;;;5013876;28;20718;-70
2021/10/24 07:34:41;;;;;;;0.30;0.30;;;10.30;86.10;;;;;;5013368;28;20175;-71
2021/10/24 07:37:07;;;;;;;0.30;0.30;;;10.80;85.30;;;;;;5010945;28;20175;-73
2021/10/24 07:39:33;;;;;;;0.40;0.40;;;11.40;83.70;;;;;;5011279;28;20168;-70
2021/10/24 07:41:58;;;;;;;0.30;0.30;;;12.10;81.80;;;;;;5013643;28;20340;-72
2021/10/24 07:44:24;;;;;;;0.30;0.30;;;12.60;79.20;;;;;;5016760;28;20634;-72
2021/10/24 07:46:54;;;;;;;0.30;0.30;;;13.10;76.50;;;;;;5016977;28;20168;-70
2021/10/24 07:49:26;;;;;;;0.30;0.30;;;13.70;74.50;;;;;;5017081;28;20410;-69
2021/10/24 07:51:52;;;;;;;0.30;0.30;;;14.40;71.80;;;;;;5017139;28;20458;-69
2021/10/24 07:54:18;;;;;;;0.30;0.30;;;15.00;68.80;;;;;;5017244;28;20413;-70
2021/10/24 07:56:43;;;;;;;0.40;0.40;;;15.70;66.60;;;;;;5014970;28;20668;-71
2021/10/24 07:59:09;;;;;;;0.30;0.30;;;16.50;62.90;;;;;;5017104;28;20513;-71
2021/10/24 08:01:39;;;;;;;0.30;0.30;;;17.10;60.80;;;;;;5016675;28;20241;-70
2021/10/24 08:04:08;;;;;;;0.30;0.30;;;17.40;59.50;;;;;;5016750;28;20168;-70
2021/10/24 08:06:35;;;;;;;0.40;0.40;;;17.90;58.00;;;;;;5016747;28;20454;-70
2021/10/24 08:09:07;;;;;;;0.30;0.30;;;18.60;56.50;;;;;;5016683;28;20414;-68
2021/10/24 08:11:34;;;;;;;0.67;0.60;;;19.10;54.50;;;;;;5016927;28;20438;-68
2021/10/24 08:14:01;;;;;;;0.40;0.40;;;19.20;53.70;;;;;;5017135;28;20409;-69
2021/10/24 08:16:27;;;;;;;0.30;0.30;;;18.90;53.70;;;;;;5015794;28;20864;-70
2021/10/24 08:18:53;;;;;;;0.30;0.30;;;18.30;54.20;;;;;;5015047;28;20410;-69
2021/10/24 08:21:19;;;;;;;0.30;0.30;;;17.60;55.50;;;;;;5016183;28;20426;-69
2021/10/24 08:23:45;;;;;;;0.40;0.40;;;17.30;56.40;;;;;;5016227;28;20172;-69
2021/10/24 08:26:13;;;;;;;0.30;0.30;;;17.00;56.70;;;;;;5014490;28;20505;-65
2021/10/24 08:28:39;;;;;;;0.30;0.30;;;17.10;56.80;;;;;;5015014;28;20829;-66
2021/10/24 08:31:04;;;;;;;0.40;0.40;;;17.00;57.50;;;;;;5014809;28;20455;-71
2021/10/24 08:33:31;;;;;;;0.30;0.30;;;16.80;57.20;;;;;;5014089;28;20676;-68
2021/10/24 08:36:01;;;;;;;0.30;0.30;;;16.70;57.00;;;;;;5015750;28;20263;-68
2021/10/24 08:38:28;;;;;;;0.30;0.30;;;16.40;57.60;;;;;;5016636;28;20461;-70
2021/10/24 08:40:54;;;;;;;0.77;0.77;;;16.40;58.00;;;;;;5014029;28;20433;-70
2021/10/24 08:43:28;;;;;;;0.30;0.30;;;16.70;58.00;;;;;;5016071;28;20417;-69
2021/10/24 08:45:54;;;;;;;0.40;0.40;;;17.60;56.00;;;;;;5015275;28;20418;-69
2021/10/24 08:48:20;;;;;;;0.30;0.30;;;18.80;55.70;;;;;;5014671;28;20484;-70
2021/10/24 08:50:46;;;;;;;0.40;0.40;;;20.30;53.70;;;;;;5015578;28;20946;-69
2021/10/24 08:53:13;;;;;;;0.77;0.60;;;22.00;51.60;;;;;;5015799;28;20242;-70
2021/10/24 08:55:41;;;;;;;0.30;0.30;;;23.10;48.50;;;;;;5014577;28;20420;-71
2021/10/24 08:58:08;;;;;;;0.30;0.30;;;24.50;46.60;;;;;;5016121;28;20912;-67
2021/10/24 09:00:34;;;;;;;0.30;0.30;;;25.20;44.40;;;;;;5014853;28;20426;-67
2021/10/24 09:03:03;;;;;;;0.30;0.30;;;25.90;42.70;;;;;;5014592;28;20406;-71
2021/10/24 09:05:33;;;;;;;0.30;0.30;;;26.30;41.10;;;;;;5015375;28;20498;-67
2021/10/24 09:08:00;;;;;;;0.30;0.30;;;26.10;40.80;;;;;;5015630;28;20412;-66
2021/10/24 09:10:47;;;;;;;0.30;0.30;;;26.40;39.90;;;;;;5014164;28;20849;-70
2021/10/24 09:13:24;;;;;;;0.30;0.30;;;26.40;38.70;;;;;;5013597;28;20499;-67
2021/10/24 09:16:06;;;;;;;0.40;0.40;;;26.50;38.20;;;;;;5013926;28;20934;-71
2021/10/24 09:18:38;;;;;;;0.47;0.47;;;26.60;38.00;;;;;;5015900;28;20450;-69
2021/10/24 09:21:16;;;;;;;0.30;0.30;;;26.70;37.70;;;;;;5013738;28;20460;-71
2021/10/24 09:23:52;;;;;;;0.30;0.30;;;26.90;36.80;;;;;;5030333;28;20421;-69
2021/10/24 09:26:25;;;;;;;0.40;0.40;;;27.00;36.30;;;;;;5015125;28;20417;-70
2021/10/24 09:29:07;;;;;;;0.50;0.50;;;27.30;36.90;;;;;;5015734;28;20378;-68
2021/10/24 09:31:35;;;;;;;0.30;0.30;;;27.30;35.60;;;;;;5014866;28;20438;-69
2021/10/24 09:34:24;;;;;;;0.40;0.40;;;27.40;35.40;;;;;;5013471;28;20410;-70
2021/10/24 09:37:00;;;;;;;0.40;0.40;;;27.70;35.20;;;;;;5014853;28;20402;-70
2021/10/24 09:39:28;;;;;;;0.30;0.30;;;27.80;36.70;;;;;;5015003;28;20430;-69
2021/10/24 09:42:13;;;;;;;0.40;0.40;;;27.80;35.90;;;;;;5014730;28;20557;-72
2021/10/24 09:45:10;;;;;;;0.40;0.40;;;28.10;34.80;;;;;;5014784;28;20406;-70
2021/10/24 09:47:44;;;;;;;0.80;0.80;;;28.20;34.40;;;;;;5014797;28;20407;-67
2021/10/24 09:50:30;;;;;;;0.30;0.30;;;27.90;34.40;;;;;;5014700;28;20396;-72
2021/10/24 09:53:26;;;;;;;0.40;0.40;;;27.60;35.00;;;;;;5014443;28;20450;-70
2021/10/24 09:55:57;;;;;;;0.30;0.30;;;27.70;36.20;;;;;;5014388;28;20833;-70
2021/10/24 09:58:36;;;;;;;0.30;0.30;;;27.80;35.60;;;;;;5014551;28;20448;-72
2021/10/24 10:01:04;;;;;;;0.53;0.53;;;28.00;36.40;;;;;;5014503;28;20420;-68
2021/10/24 10:03:32;;;;;;;0.30;0.30;;;28.00;34.90;;;;;;5013927;28;20517;-69
2021/10/24 10:05:58;;;;;;;0.30;0.30;;;28.00;35.00;;;;;;5014142;28;20410;-68
2021/10/24 10:08:24;;;;;;;0.30;0.30;;;27.90;36.70;;;;;;5014441;28;20413;-68
2021/10/24 10:11:00;;;;;;;0.30;0.30;;;27.60;35.00;;;;;;5014234;28;20409;-67
2021/10/24 10:13:27;;;;;;;0.40;0.40;;;27.10;36.50;;;;;;5014159;28;20947;-70
2021/10/24 10:15:55;;;;;;;0.30;0.30;;;27.20;37.50;;;;;;5013805;28;20483;-67
2021/10/24 10:18:22;;;;;;;0.40;0.40;;;27.30;36.00;;;;;;5012941;28;20396;-69
2021/10/24 10:20:47;;;;;;;0.30;0.30;;;27.50;35.50;;;;;;5014132;28;20890;-69
2021/10/24 10:23:14;;;;;;;1.03;1.03;;;27.20;39.10;;;;;;5013919;28;20389;-69
2021/10/24 10:25:43;;;;;;;0.30;0.30;;;26.30;40.60;;;;;;5013774;28;20198;-69
2021/10/24 10:28:14;;;;;;;0.30;0.30;;;25.50;39.00;;;;;;5014302;28;20381;-71
2021/10/24 10:30:41;;;;;;;0.40;0.40;;;25.20;42.60;;;;;;5013870;28;20422;-67
2021/10/24 10:33:33;;;;;;;0.30;0.30;;;24.70;42.60;;;;;;5013797;28;20429;-68
2021/10/24 10:36:04;;;;;;;0.30;0.30;;;24.30;41.60;;;;;;5013627;28;20405;-69
2021/10/24 10:38:56;;;;;;;0.40;0.30;;;23.90;42.20;;;;;;5014073;28;20809;-69
2021/10/24 10:41:34;;;;;;;0.40;0.40;;;23.60;44.50;;;;;;5014115;28;20520;-69
2021/10/24 10:44:08;;;;;;;0.40;0.40;;;23.30;41.10;;;;;;5013748;28;20450;-66
2021/10/24 10:46:34;;;;;;;0.30;0.30;;;23.20;40.40;;;;;;5013601;28;20407;-71
2021/10/24 10:49:21;;;;;;;0.30;0.30;;;22.80;39.30;;;;;;5013695;28;20545;-71
2021/10/24 10:51:48;;;;;;;0.30;0.30;;;22.60;41.30;;;;;;5013509;28;20688;-70
2021/10/24 10:54:14;;;;;;;0.30;0.30;;;22.30;37.50;;;;;;5013833;28;20441;-68
2021/10/24 10:56:47;;;;;;;0.30;0.30;;;21.90;43.00;;;;;;5013354;28;20445;-68
2021/10/24 10:59:14;;;;;;;0.30;0.30;;;21.30;40.30;;;;;;5013592;28;20403;-69
2021/10/24 11:01:40;;;;;;;0.30;0.30;;;20.60;39.90;;;;;;5013501;28;20443;-69
2021/10/24 11:04:15;;;;;;;0.30;0.30;;;20.10;43.00;;;;;;5013517;28;20410;-67
2021/10/24 11:06:43;;;;;;;0.30;0.30;;;19.80;40.70;;;;;;5013595;28;20503;-68
2021/10/24 11:09:10;;;;;;;0.30;0.30;;;19.30;40.70;;;;;;5013692;28;20904;-71
2021/10/24 11:11:45;;;;;;;0.30;0.30;;;19.10;42.80;;;;;;5013372;28;20431;-72
2021/10/24 11:14:13;;;;;;;0.30;0.30;;;19.30;43.70;;;;;;5013311;28;20398;-71
2021/10/24 11:16:42;;;;;;;0.30;0.30;;;19.10;44.70;;;;;;5015967;28;20395;-68
2021/10/24 11:19:26;;;;;;;0.30;0.30;;;19.00;51.80;;;;;;5017475;28;20491;-72
2021/10/24 11:21:52;;;;;;;0.30;0.30;;;18.80;47.90;;;;;;5017692;28;21002;-69
2021/10/24 11:24:19;;;;;;;0.30;0.30;;;18.80;48.30;;;;;;5017325;28;20402;-71
2021/10/24 11:26:52;;;;;;;0.30;0.30;;;18.90;45.00;;;;;;5017001;28;20410;-68
2021/10/24 11:29:18;;;;;;;0.40;0.40;;;19.00;45.20;;;;;;5017352;28;20406;-71
2021/10/24 11:31:43;;;;;;;0.30;0.30;;;19.10;50.00;;;;;;5017008;28;20433;-71
2021/10/24 11:34:09;;;;;;;0.40;0.40;;;18.70;42.80;;;;;;5017072;28;20168;-68
2021/10/24 11:36:37;;;;;;;0.50;0.50;;;18.40;41.80;;;;;;5016934;28;20572;-70
2021/10/24 11:39:03;;;;;;;0.30;0.30;;;18.40;48.00;;;;;;5017256;28;20202;-68
2021/10/24 11:41:30;;;;;;;0.30;0.30;;;18.40;52.10;;;;;;5016916;28;20458;-69
2021/10/24 11:44:09;;;;;;;0.30;0.30;;;18.40;44.50;;;;;;5017135;28;20402;-67
2021/10/24 11:46:36;;;;;;;0.30;0.30;;;18.50;42.90;;;;;;5016743;28;20415;-70
2021/10/24 11:49:04;;;;;;;0.30;0.30;;;18.60;51.80;;;;;;5017048;28;20769;-68
2021/10/24 11:51:32;;;;;;;0.40;0.40;;;18.40;52.90;;;;;;5016589;28;20903;-72
2021/10/24 11:53:58;;;;;;;0.30;0.30;;;18.30;54.50;;;;;;5016842;28;20410;-70
2021/10/24 12:01:41;;;;;;;0.30;0.30;;;17.80;39.40;;;;;;5016945;28;20449;-70
2021/10/24 12:04:12;;;;;;;0.30;0.30;;;18.00;39.90;;;;;;5016761;28;20414;-69
2021/10/24 12:06:53;;;;;;;0.30;0.30;;;18.20;38.10;;;;;;5014745;28;20195;-70
2021/10/24 12:09:46;;;;;;;0.30;0.30;;;18.10;46.60;;;;;;5017092;28;20406;-68
2021/10/24 12:12:26;;;;;;;0.30;0.30;;;17.90;46.20;;;;;;5016190;28;20534;-67
2021/10/24 12:14:55;;;;;;;0.30;0.30;;;18.00;48.10;;;;;;5014361;28;20967;-69
2021/10/24 12:17:26;;;;;;;0.30;0.30;;;17.90;49.00;;;;;;5016100;28;20435;-66
2021/10/24 12:20:13;;;;;;;0.30;0.30;;;17.80;43.60;;;;;;5015549;28;20402;-68
2021/10/24 12:22:42;;;;;;;0.30;0.30;;;17.80;46.90;;;;;;5018420;28;20811;-69
2021/10/24 12:25:11;;;;;;;0.40;0.40;;;17.80;44.50;;;;;;5016260;28;20512;-68
2021/10/24 12:27:40;;;;;;;0.30;0.30;;;17.70;47.70;;;;;;5015967;28;20442;-68
2021/10/24 12:30:08;;;;;;;0.30;0.30;;;17.30;39.40;;;;;;5015700;28;20908;-68
2021/10/24 12:32:51;;;;;;;0.40;0.40;;;17.30;43.30;;;;;;5016129;28;20520;-67
2021/10/24 12:35:17;;;;;;;0.30;0.30;;;17.00;40.10;;;;;;5016030;28;20827;-68
2021/10/24 12:37:43;;;;;;;0.30;0.30;;;17.00;43.10;;;;;;5014301;28;20497;-69
2021/10/24 12:40:26;;;;;;;0.40;0.40;;;16.70;48.70;;;;;;5015093;28;20254;-68
2021/10/24 12:43:11;;;;;;;0.30;0.30;;;16.50;47.20;;;;;;5013940;28;20582;-68
2021/10/24 12:45:52;;;;;;;0.30;0.30;;;16.20;43.20;;;;;;5014585;28;20412;-67
2021/10/24 12:48:23;;;;;;;0.30;0.30;;;15.90;46.30;;;;;;5015906;28;20458;-67
2021/10/24 12:50:50;;;;;;;0.30;0.30;;;15.50;39.90;;;;;;5015522;28;20457;-67
2021/10/24 12:53:18;;;;;;;0.40;0.40;;;15.30;47.70;;;;;;5015543;28;20446;-69
2021/10/24 12:56:04;;;;;;;0.30;0.30;;;15.10;47.60;;;;;;5015482;28;20949;-69
2021/10/24 12:58:31;;;;;;;0.30;0.30;;;14.90;44.00;;;;;;5015820;28;20889;-68
2021/10/24 13:00:57;;;;;;;0.50;0.50;;;14.90;46.10;;;;;;5015690;28;20923;-67
2021/10/24 13:03:23;;;;;;;0.30;0.30;;;14.90;47.80;;;;;;5014273;28;20418;-68